Terminal Aerodrome Forecast
Issued by NWS

Home | Current Version | Previous Version | Text Only | Print | Product List | Glossary On
Versions: 1 2 3 4 5 6 7 8 9 10 11 12 13 14 15 16 17 18
000
FTUS43 KSGF 311200 AAA
TAFJLN
TAF AMD
KJLN 311255Z 3113/0112 VRB03KT 3SM BR SCT003 OVC080
      TEMPO 3113/3114 BKN003
     FM311400 07005KT P6SM BKN050
     FM010000 VRB03KT P6SM FEW040 SCT250
      TEMPO 0108/0112 3SM BR=

USA.gov is the U.S. government's official web portal to all federal, state and local government web resources and services.